Aviation Digital Data Service (ADDS)

Output produced by METARs form (2142 UTC 08 August 2020)
found at http://www.aviationweather.gov/metar/data/
 
Forecast for: RJNS (SHIZOUKA , JP)
Text: TAF RJNS 081705Z 0818/1000 26012KT 9999 FEW008 BKN015
Forecast period: 1800 UTC 08 August 2020 to 0000 UTC 10 August 2020
Forecast type: FROM: standard forecast or significant change
Winds: from the W (260 degrees) at 14 MPH (12 knots; 6.2 m/s)
Visibility: 6 or more miles (10+ km)
Ceiling: 1500 feet AGL
Clouds: few clouds at 800 feet AGL
broken clouds at 1500 feet AGL
Weather: no significant weather forecast for this period